createdAt,value
2019-05-30T00:01:11.173Z,15.40
2019-05-30T00:03:38.448Z,15.40
2019-05-30T00:06:05.638Z,15.40
2019-05-30T00:08:32.623Z,15.40
2019-05-30T00:11:00.530Z,15.30
2019-05-30T00:13:27.751Z,15.20
2019-05-30T00:15:56.636Z,15.20
2019-05-30T00:18:23.992Z,15.10
2019-05-30T00:20:50.925Z,15.00
2019-05-30T00:23:18.003Z,15.00
2019-05-30T00:25:45.094Z,14.90
2019-05-30T00:28:12.209Z,15.00
2019-05-30T00:30:39.189Z,15.00
2019-05-30T00:33:07.022Z,15.10
2019-05-30T00:35:34.486Z,15.10
2019-05-30T00:38:01.966Z,15.10
2019-05-30T00:40:29.008Z,15.10
2019-05-30T00:42:55.928Z,15.00
2019-05-30T00:45:22.982Z,15.00
2019-05-30T00:47:50.259Z,15.00
2019-05-30T00:50:17.316Z,14.90
2019-05-30T00:52:44.334Z,14.90
2019-05-30T00:55:11.402Z,14.80
2019-05-30T00:57:38.263Z,14.80
2019-05-30T01:00:07.130Z,14.70
2019-05-30T01:02:34.550Z,14.70
2019-05-30T01:05:03.386Z,14.70
2019-05-30T01:07:30.502Z,14.70
2019-05-30T01:09:59.119Z,14.70
2019-05-30T01:12:26.502Z,14.70
2019-05-30T01:14:53.752Z,14.70
2019-05-30T01:17:20.777Z,14.70
2019-05-30T01:19:48.211Z,14.70
2019-05-30T01:22:15.476Z,14.70
2019-05-30T01:24:42.594Z,14.70
2019-05-30T01:27:09.811Z,14.70
2019-05-30T01:29:37.128Z,14.80
2019-05-30T01:32:24.088Z,14.80
2019-05-30T01:34:51.289Z,14.80
2019-05-30T01:37:18.810Z,14.80
2019-05-30T01:39:46.181Z,14.80
2019-05-30T01:42:13.504Z,14.90
2019-05-30T01:44:40.718Z,14.80
2019-05-30T01:47:08.392Z,14.80
2019-05-30T01:49:35.611Z,14.90
2019-05-30T01:52:03.070Z,14.90
2019-05-30T01:54:30.450Z,14.90
2019-05-30T01:56:58.440Z,14.80
2019-05-30T01:59:25.726Z,14.80
2019-05-30T02:01:53.101Z,14.80
2019-05-30T02:04:20.140Z,14.90
2019-05-30T02:06:47.255Z,14.80
2019-05-30T02:09:14.404Z,14.80
2019-05-30T02:11:41.546Z,14.90
2019-05-30T02:14:09.939Z,14.80
2019-05-30T02:16:37.147Z,14.80
2019-05-30T02:19:05.758Z,14.90
2019-05-30T02:21:33.042Z,14.90
2019-05-30T02:24:00.193Z,14.90
2019-05-30T02:26:27.302Z,14.90
2019-05-30T02:28:54.314Z,14.90
2019-05-30T02:31:37.807Z,14.90
2019-05-30T02:33:50.490Z,14.80
2019-05-30T02:36:17.569Z,14.90
2019-05-30T02:38:44.751Z,14.90
2019-05-30T02:41:12.481Z,14.90
2019-05-30T02:43:39.829Z,14.90
2019-05-30T02:46:08.109Z,14.90
2019-05-30T02:48:54.738Z,14.90
2019-05-30T02:51:05.690Z,15.00
2019-05-30T02:53:33.783Z,15.00
2019-05-30T02:56:01.430Z,15.00
2019-05-30T02:58:28.515Z,15.00
2019-05-30T03:00:55.646Z,15.00
2019-05-30T03:03:22.865Z,15.00
2019-05-30T03:05:50.199Z,14.90
2019-05-30T03:08:17.621Z,14.90
2019-05-30T03:10:44.934Z,15.00
2019-05-30T03:13:12.881Z,14.90
2019-05-30T03:15:40.604Z,14.90
2019-05-30T03:18:09.812Z,14.90
2019-05-30T03:20:37.320Z,14.90
2019-05-30T03:23:05.837Z,14.90
2019-05-30T03:25:33.827Z,14.90
2019-05-30T03:28:02.713Z,14.90
2019-05-30T03:30:30.916Z,14.80
2019-05-30T03:33:07.753Z,14.80
2019-05-30T03:35:31.376Z,14.70
2019-05-30T03:37:56.760Z,14.70
2019-05-30T03:40:25.711Z,14.70
2019-05-30T03:42:53.271Z,14.80
2019-05-30T03:45:21.413Z,14.80
2019-05-30T03:47:52.496Z,14.80
2019-05-30T03:50:23.423Z,14.80
2019-05-30T03:52:51.239Z,14.80
2019-05-30T03:55:20.048Z,14.80
2019-05-30T03:57:53.372Z,14.80
2019-05-30T04:00:31.744Z,14.80
2019-05-30T04:03:10.928Z,14.90
2019-05-30T04:05:42.123Z,14.80
2019-05-30T04:08:12.390Z,14.90
2019-05-30T04:10:41.690Z,14.90
2019-05-30T04:13:33.787Z,14.90
2019-05-30T04:16:00.786Z,14.90
2019-05-30T04:18:27.877Z,14.90
2019-05-30T04:20:54.884Z,14.90
2019-05-30T04:23:21.968Z,15.00
2019-05-30T04:25:48.999Z,15.00
2019-05-30T04:28:16.364Z,15.00
2019-05-30T04:30:45.049Z,15.00
2019-05-30T04:33:19.254Z,15.10
2019-05-30T04:35:41.477Z,15.00
2019-05-30T04:38:08.731Z,15.00
2019-05-30T04:40:35.822Z,15.10
2019-05-30T04:43:03.013Z,15.10
2019-05-30T04:45:30.320Z,15.10
2019-05-30T04:47:57.316Z,15.10
2019-05-30T04:50:24.459Z,15.10
2019-05-30T04:52:51.497Z,15.20
2019-05-30T04:55:21.088Z,15.20
2019-05-30T04:57:47.503Z,15.20
2019-05-30T05:00:17.011Z,15.20
2019-05-30T05:02:44.478Z,15.20
2019-05-30T05:05:13.726Z,15.20
2019-05-30T05:07:42.174Z,15.30
2019-05-30T05:10:12.022Z,15.20
2019-05-30T05:12:39.220Z,15.20
2019-05-30T05:15:07.585Z,15.20
2019-05-30T05:17:34.837Z,15.20
2019-05-30T05:20:02.256Z,15.30
2019-05-30T05:22:30.702Z,15.30
2019-05-30T05:24:57.707Z,15.30
2019-05-30T05:27:25.239Z,15.30
2019-05-30T05:29:52.217Z,15.30
2019-05-30T05:32:20.454Z,15.40
2019-05-30T05:34:47.645Z,15.40
2019-05-30T05:37:15.015Z,15.50
2019-05-30T05:39:42.022Z,15.50
2019-05-30T05:42:09.146Z,15.70
2019-05-30T05:44:36.631Z,15.70
2019-05-30T05:47:03.730Z,15.80
2019-05-30T05:49:30.759Z,15.70
2019-05-30T05:51:57.872Z,15.70
2019-05-30T05:54:25.097Z,15.70
2019-05-30T05:56:52.222Z,15.70
2019-05-30T05:59:19.194Z,15.70
2019-05-30T06:01:46.323Z,15.70
2019-05-30T06:04:13.891Z,15.70
2019-05-30T06:06:41.439Z,15.70
2019-05-30T06:09:08.675Z,15.70
2019-05-30T06:11:36.050Z,15.80
2019-05-30T06:14:03.145Z,15.70
2019-05-30T06:16:30.413Z,15.60
2019-05-30T06:18:57.338Z,15.60
2019-05-30T06:21:25.396Z,15.50
2019-05-30T06:57:58.851Z,15.00
2019-05-30T07:00:28.005Z,14.90
2019-05-30T07:02:55.745Z,15.00
2019-05-30T07:05:30.575Z,14.90
2019-05-30T07:07:58.147Z,14.90
2019-05-30T07:10:25.305Z,14.90
2019-05-30T07:12:52.360Z,14.80
2019-05-30T07:18:08.110Z,14.80
2019-05-30T07:24:11.119Z,14.80
2019-05-30T07:26:53.033Z,14.90
2019-05-30T07:29:34.143Z,14.80
2019-05-30T07:32:01.639Z,14.80
2019-05-30T07:37:18.834Z,14.70
2019-05-30T07:39:46.300Z,14.70
2019-05-30T07:42:14.099Z,14.70
2019-05-30T07:44:42.292Z,14.70
2019-05-30T07:47:49.706Z,14.70
2019-05-30T07:50:56.859Z,14.70
2019-05-30T08:00:22.119Z,15.20
2019-05-30T08:02:51.230Z,15.30
2019-05-30T08:05:24.190Z,15.40
2019-05-30T08:08:18.114Z,15.50
2019-05-30T08:10:48.956Z,15.60
2019-05-30T08:13:16.845Z,15.70
2019-05-30T08:15:44.727Z,15.90
2019-05-30T08:18:13.247Z,15.90
2019-05-30T08:20:41.859Z,16.00
2019-05-30T08:23:09.926Z,16.20
2019-05-30T08:25:38.401Z,16.50
2019-05-30T08:28:05.916Z,16.70
2019-05-30T08:30:38.791Z,16.60
2019-05-30T08:33:33.580Z,16.50
2019-05-30T08:36:05.646Z,16.70
2019-05-30T08:45:43.282Z,17.20
2019-05-30T08:45:52.912Z,16.90
2019-05-30T08:48:43.304Z,17.50
2019-05-30T08:51:13.126Z,17.40
2019-05-30T08:53:54.856Z,17.50
2019-05-30T08:56:54.537Z,17.60
2019-05-30T08:59:23.647Z,17.60
2019-05-30T09:01:53.492Z,17.70
2019-05-30T09:04:22.435Z,17.60
2019-05-30T09:06:50.408Z,17.70
2019-05-30T09:09:17.776Z,17.70
2019-05-30T09:11:58.774Z,17.70
2019-05-30T09:14:27.076Z,17.50
2019-05-30T09:31:22.100Z,17.30
2019-05-30T09:33:57.501Z,17.20
2019-05-30T09:36:30.416Z,17.20
2019-05-30T09:39:00.740Z,17.20
2019-05-30T09:41:28.247Z,17.20
2019-05-30T09:43:55.677Z,17.20
2019-05-30T09:46:23.156Z,17.20
2019-05-30T09:48:51.774Z,17.20
2019-05-30T09:51:21.421Z,17.30
2019-05-30T09:53:48.836Z,17.30
2019-05-30T09:56:16.187Z,17.30
2019-05-30T09:58:46.001Z,17.50
2019-05-30T10:01:13.511Z,17.90
2019-05-30T10:03:41.965Z,18.30
2019-05-30T10:06:10.312Z,18.40
2019-05-30T10:08:37.512Z,18.70
2019-05-30T10:11:04.939Z,18.80
2019-05-30T10:13:32.422Z,19.00
2019-05-30T10:15:59.972Z,19.00
2019-05-30T10:18:27.089Z,18.70
2019-05-30T10:20:54.314Z,18.60
2019-05-30T10:23:21.440Z,18.40
2019-05-30T10:25:49.517Z,18.20
2019-05-30T10:28:16.931Z,18.00
2019-05-30T10:30:50.311Z,18.10
2019-05-30T10:33:14.688Z,18.10
2019-05-30T10:35:42.128Z,18.20
2019-05-30T10:38:09.488Z,18.30
2019-05-30T10:40:36.621Z,18.40
2019-05-30T10:43:04.164Z,18.40
2019-05-30T10:45:31.526Z,18.30
2019-05-30T10:47:58.671Z,18.30
2019-05-30T10:50:25.977Z,18.40
2019-05-30T10:52:53.588Z,18.40
2019-05-30T10:55:21.920Z,18.30
2019-05-30T10:57:50.038Z,18.40
2019-05-30T11:00:18.100Z,18.40
2019-05-30T11:02:47.363Z,18.40
2019-05-30T11:05:17.296Z,18.50
2019-05-30T11:08:03.966Z,18.40
2019-05-30T11:10:42.953Z,18.40
2019-05-30T11:13:12.436Z,18.50
2019-05-30T11:15:41.385Z,18.50
2019-05-30T11:18:09.849Z,18.70
2019-05-30T11:20:37.553Z,19.00
2019-05-30T11:23:05.195Z,19.10
2019-05-30T11:25:35.481Z,19.20
2019-05-30T11:28:03.289Z,19.10
2019-05-30T11:30:30.956Z,19.00
2019-05-30T11:32:59.405Z,19.00
2019-05-30T11:35:26.888Z,19.00
2019-05-30T11:37:55.210Z,18.80
2019-05-30T11:40:22.570Z,18.70
2019-05-30T11:42:49.776Z,18.70
2019-05-30T11:45:18.055Z,18.60
2019-05-30T11:47:45.271Z,18.40
2019-05-30T11:50:13.297Z,18.40
2019-05-30T11:52:40.584Z,18.20
2019-05-30T11:55:08.102Z,18.30
2019-05-30T11:57:35.228Z,18.20
2019-05-30T12:00:04.887Z,18.10
2019-05-30T12:02:32.085Z,18.10
2019-05-30T12:04:59.406Z,18.10
2019-05-30T12:07:35.757Z,18.20
2019-05-30T12:09:55.551Z,18.20
2019-05-30T12:12:23.088Z,18.20
2019-05-30T12:14:51.241Z,18.20
2019-05-30T12:17:18.669Z,18.30
2019-05-30T12:19:45.885Z,18.40
2019-05-30T12:22:13.047Z,18.30
2019-05-30T12:24:40.118Z,18.30
2019-05-30T12:27:07.483Z,18.50
2019-05-30T12:29:34.751Z,18.60
2019-05-30T12:32:03.472Z,18.60
2019-05-30T12:34:30.744Z,18.50
2019-05-30T12:36:58.490Z,18.40
2019-05-30T12:39:25.678Z,18.40
2019-05-30T12:41:52.963Z,18.40
2019-05-30T12:44:21.140Z,18.40
2019-05-30T12:46:48.407Z,18.30
2019-05-30T12:49:15.602Z,18.30
2019-05-30T12:51:42.977Z,18.30
2019-05-30T12:54:10.047Z,18.30
2019-05-30T12:56:37.415Z,18.30
2019-05-30T12:59:04.773Z,18.30
2019-05-30T13:01:31.987Z,18.20
2019-05-30T13:03:59.194Z,18.20
2019-05-30T13:06:26.339Z,18.30
2019-05-30T13:08:54.919Z,18.30
2019-05-30T13:11:22.193Z,18.30
2019-05-30T13:13:49.448Z,18.40
2019-05-30T13:16:16.707Z,18.70
2019-05-30T13:18:43.912Z,18.70
2019-05-30T13:21:11.092Z,18.80
2019-05-30T13:23:38.258Z,18.80
2019-05-30T13:26:05.938Z,18.70
2019-05-30T13:28:33.326Z,18.60
2019-05-30T13:31:00.649Z,18.40
2019-05-30T13:33:27.989Z,18.40
2019-05-30T13:35:55.155Z,18.60
2019-05-30T13:38:26.589Z,18.80
2019-05-30T13:40:51.235Z,18.90
2019-05-30T13:43:18.604Z,19.10
2019-05-30T13:45:45.652Z,19.20
2019-05-30T13:48:13.045Z,19.20
2019-05-30T13:50:40.279Z,19.20
2019-05-30T13:53:09.212Z,19.20
2019-05-30T13:55:36.596Z,19.30
2019-05-30T13:58:03.881Z,19.50
2019-05-30T14:00:31.150Z,19.60
2019-05-30T14:02:58.387Z,19.90
2019-05-30T14:05:25.676Z,19.90
2019-05-30T14:07:52.943Z,20.10
2019-05-30T14:10:20.385Z,20.20
2019-05-30T14:12:47.276Z,20.40
2019-05-30T14:15:15.834Z,20.80
2019-05-30T14:17:42.834Z,21.10
2019-05-30T14:20:11.413Z,21.50
2019-05-30T14:22:38.479Z,21.70
2019-05-30T14:25:05.990Z,21.30
2019-05-30T14:27:32.846Z,21.20
2019-05-30T14:29:59.802Z,21.20
2019-05-30T14:32:26.685Z,21.80
2019-05-30T14:34:53.587Z,22.70
2019-05-30T14:37:20.458Z,23.10
2019-05-30T14:39:47.315Z,23.00
2019-05-30T14:42:14.513Z,22.70
2019-05-30T14:44:41.352Z,22.60
2019-05-30T14:47:08.505Z,22.60
2019-05-30T14:49:35.358Z,22.60
2019-05-30T14:52:02.829Z,22.60
2019-05-30T14:54:29.734Z,22.60
2019-05-30T14:56:56.577Z,22.30
2019-05-30T14:59:23.614Z,21.90
2019-05-30T15:01:50.503Z,21.60
2019-05-30T15:04:17.578Z,21.70
2019-05-30T15:06:44.672Z,21.60
2019-05-30T15:09:24.791Z,21.80
2019-05-30T15:11:40.677Z,22.30
2019-05-30T15:14:08.705Z,22.30
2019-05-30T15:16:35.726Z,22.20
2019-05-30T15:19:02.779Z,22.30
2019-05-30T15:21:29.614Z,22.00
2019-05-30T15:23:56.875Z,21.70
2019-05-30T15:26:23.766Z,21.60
2019-05-30T15:28:50.623Z,21.70
2019-05-30T15:31:17.534Z,22.20
2019-05-30T15:33:44.403Z,22.60
2019-05-30T15:36:11.325Z,22.60
2019-05-30T15:38:39.278Z,22.50
2019-05-30T15:41:06.978Z,22.40
2019-05-30T15:43:34.009Z,22.10
2019-05-30T15:46:00.886Z,21.90
2019-05-30T15:48:27.853Z,21.70
2019-05-30T15:50:54.717Z,21.60
2019-05-30T15:53:21.598Z,21.60
2019-05-30T15:55:48.451Z,21.60
2019-05-30T15:58:15.721Z,21.80
2019-05-30T16:00:42.674Z,22.20
2019-05-30T16:03:10.443Z,23.10
2019-05-30T16:05:37.610Z,23.30
2019-05-30T16:08:04.561Z,23.60
2019-05-30T16:10:31.806Z,23.30
2019-05-30T16:12:58.685Z,23.20
2019-05-30T16:15:25.651Z,22.90
2019-05-30T16:17:52.525Z,22.60
2019-05-30T16:20:20.562Z,22.10
2019-05-30T16:22:47.528Z,21.80
2019-05-30T16:25:15.629Z,21.50
2019-05-30T16:27:42.598Z,21.40
2019-05-30T16:30:12.488Z,21.30
2019-05-30T16:32:41.070Z,21.30
2019-05-30T16:35:08.231Z,21.20
2019-05-30T16:37:35.527Z,21.30
2019-05-30T16:40:06.292Z,21.70
2019-05-30T16:42:31.934Z,22.10
2019-05-30T16:44:58.822Z,22.20
2019-05-30T16:47:26.656Z,22.10
2019-05-30T16:49:53.657Z,22.00
2019-05-30T16:52:21.000Z,21.80
2019-05-30T16:54:47.950Z,21.70
2019-05-30T16:57:14.919Z,21.60
2019-05-30T16:59:41.806Z,21.70
2019-05-30T17:02:08.646Z,22.00
2019-05-30T17:04:35.519Z,22.00
2019-05-30T17:07:02.450Z,22.10
2019-05-30T17:09:29.322Z,22.10
2019-05-30T17:11:56.593Z,22.10
2019-05-30T17:14:24.015Z,21.90
2019-05-30T17:16:51.327Z,21.80
2019-05-30T17:19:18.309Z,21.60
2019-05-30T17:21:45.227Z,21.50
2019-05-30T17:24:12.093Z,21.50
2019-05-30T17:26:38.956Z,21.40
2019-05-30T17:29:05.821Z,21.30
2019-05-30T17:31:32.678Z,21.20
2019-05-30T17:33:59.890Z,21.10
2019-05-30T17:36:26.842Z,21.00
2019-05-30T17:38:53.725Z,21.00
2019-05-30T17:41:20.835Z,21.00
2019-05-30T17:43:47.720Z,20.90
2019-05-30T17:46:14.538Z,20.80
2019-05-30T17:48:41.486Z,20.80
2019-05-30T17:51:08.365Z,20.80
2019-05-30T17:53:35.642Z,20.70
2019-05-30T17:56:02.600Z,20.70
2019-05-30T17:58:30.230Z,20.60
2019-05-30T18:00:57.424Z,20.60
2019-05-30T18:03:24.487Z,20.70
2019-05-30T18:05:51.333Z,20.60
2019-05-30T18:08:18.286Z,20.60
2019-05-30T18:10:53.425Z,20.60
2019-05-30T18:13:13.916Z,20.60
2019-05-30T18:15:42.053Z,20.60
2019-05-30T18:18:08.909Z,20.60
2019-05-30T18:20:47.674Z,20.60
2019-05-30T18:23:04.618Z,20.60
2019-05-30T18:25:31.816Z,20.50
2019-05-30T18:27:58.872Z,20.50
2019-05-30T18:30:38.374Z,20.40
2019-05-30T18:33:05.267Z,20.40
2019-05-30T18:35:32.553Z,20.30
2019-05-30T18:38:01.850Z,20.30
2019-05-30T18:40:30.899Z,20.30
2019-05-30T18:42:59.062Z,20.30
2019-05-30T18:45:35.058Z,20.20
2019-05-30T18:48:02.018Z,20.10
2019-05-30T18:50:29.347Z,20.10
2019-05-30T18:52:56.410Z,20.10
2019-05-30T18:55:24.527Z,20.00
2019-05-30T18:57:51.999Z,20.10
2019-05-30T19:00:19.203Z,20.10
2019-05-30T19:02:46.159Z,20.00
2019-05-30T19:05:13.353Z,20.00
2019-05-30T19:07:40.314Z,20.00
2019-05-30T19:10:07.626Z,19.90
2019-05-30T19:12:34.693Z,20.00
2019-05-30T19:15:01.992Z,19.90
2019-05-30T19:17:30.004Z,19.90
2019-05-30T19:19:56.877Z,19.80
2019-05-30T19:22:25.942Z,19.80
2019-05-30T19:24:53.150Z,19.80
2019-05-30T19:27:20.028Z,19.70
2019-05-30T19:29:46.917Z,19.70
2019-05-30T19:32:13.770Z,19.60
2019-05-30T19:34:40.638Z,19.50
2019-05-30T19:37:07.492Z,19.50
2019-05-30T19:39:35.623Z,19.50
2019-05-30T19:42:02.753Z,19.40
2019-05-30T19:44:29.991Z,19.40
2019-05-30T19:46:56.870Z,19.40
2019-05-30T19:49:23.789Z,19.40
2019-05-30T19:51:51.163Z,19.40
2019-05-30T19:54:18.057Z,19.30
2019-05-30T19:56:44.913Z,19.30
2019-05-30T19:59:11.881Z,19.20
2019-05-30T20:01:40.068Z,19.20
2019-05-30T20:04:07.031Z,19.20
2019-05-30T20:06:34.597Z,19.20
2019-05-30T20:09:04.842Z,19.20
2019-05-30T20:11:33.241Z,19.20
2019-05-30T20:14:00.498Z,19.20
2019-05-30T20:16:27.989Z,19.20
2019-05-30T20:18:55.204Z,19.10
2019-05-30T20:21:22.345Z,19.20
2019-05-30T20:23:55.456Z,19.20
2019-05-30T20:26:18.410Z,19.10
2019-05-30T20:28:45.380Z,19.20
2019-05-30T20:31:12.951Z,19.20
2019-05-30T20:33:40.590Z,19.20
2019-05-30T20:36:09.158Z,19.20
2019-05-30T20:38:36.558Z,19.10
2019-05-30T20:41:03.900Z,19.10
2019-05-30T20:43:33.171Z,19.10
2019-05-30T20:46:00.028Z,19.10
2019-05-30T20:48:27.179Z,19.00
2019-05-30T20:50:54.387Z,19.10
2019-05-30T20:53:21.529Z,19.10
2019-05-30T20:55:48.650Z,19.00
2019-05-30T20:58:15.985Z,19.00
2019-05-30T21:00:43.837Z,19.00
2019-05-30T21:03:11.197Z,19.00
2019-05-30T21:05:39.856Z,19.00
2019-05-30T21:08:07.159Z,19.00
2019-05-30T21:10:35.384Z,19.00
2019-05-30T21:13:03.596Z,19.10
2019-05-30T21:15:32.962Z,19.10
2019-05-30T21:18:00.691Z,19.10
2019-05-30T21:20:27.972Z,19.00
2019-05-30T21:22:55.027Z,19.00
2019-05-30T21:25:22.242Z,19.10
2019-05-30T21:27:49.515Z,19.00
2019-05-30T21:30:17.246Z,19.00
2019-05-30T21:32:46.252Z,19.00
2019-05-30T21:35:14.322Z,19.00
2019-05-30T21:37:41.857Z,18.90
2019-05-30T21:40:09.478Z,18.90
2019-05-30T21:42:51.481Z,18.90
2019-05-30T21:45:06.447Z,18.90
2019-05-30T21:47:33.583Z,18.90
2019-05-30T21:50:00.793Z,18.90
2019-05-30T21:52:27.882Z,18.90
2019-05-30T21:54:54.953Z,18.80
2019-05-30T21:57:22.138Z,18.80
2019-05-30T21:59:50.688Z,18.90
2019-05-30T22:02:18.091Z,18.80
2019-05-30T22:04:46.485Z,18.80
2019-05-30T22:07:14.061Z,18.80
2019-05-30T22:09:41.247Z,18.90
2019-05-30T22:12:08.473Z,18.90
2019-05-30T22:14:35.698Z,18.90
2019-05-30T22:17:02.920Z,18.90
2019-05-30T22:19:30.338Z,18.90
2019-05-30T22:21:57.581Z,18.90
2019-05-30T22:24:24.829Z,18.80
2019-05-30T22:26:52.615Z,18.80
2019-05-30T22:29:20.123Z,18.70
2019-05-30T22:31:48.506Z,18.70
2019-05-30T22:34:15.666Z,18.80
2019-05-30T22:36:42.853Z,18.70
2019-05-30T22:39:10.163Z,18.70
2019-05-30T22:41:37.272Z,18.70
2019-05-30T22:44:05.459Z,18.70
2019-05-30T22:46:32.488Z,18.70
2019-05-30T22:48:59.631Z,18.70
2019-05-30T22:51:27.626Z,18.70
2019-05-30T22:53:55.067Z,18.70
2019-05-30T22:56:22.510Z,18.70
2019-05-30T22:58:50.170Z,18.70
2019-05-30T23:01:17.719Z,18.70
2019-05-30T23:03:45.074Z,18.60
2019-05-30T23:06:12.423Z,18.60
2019-05-30T23:08:39.570Z,18.50
2019-05-30T23:11:06.659Z,18.60
2019-05-30T23:13:40.455Z,18.60
2019-05-30T23:16:03.040Z,18.60
2019-05-30T23:18:30.186Z,18.60
2019-05-30T23:20:57.243Z,18.50
2019-05-30T23:23:24.313Z,18.60
2019-05-30T23:25:51.614Z,18.60
2019-05-30T23:28:18.639Z,18.50
2019-05-30T23:30:45.803Z,18.50
2019-05-30T23:33:12.839Z,18.40
2019-05-30T23:35:39.888Z,18.40
2019-05-30T23:38:06.925Z,18.50
2019-05-30T23:40:34.171Z,18.40
2019-05-30T23:43:01.720Z,18.30
2019-05-30T23:45:29.039Z,18.30
2019-05-30T23:47:56.061Z,18.30
2019-05-30T23:50:23.252Z,18.30
2019-05-30T23:52:50.475Z,18.30
2019-05-30T23:55:18.231Z,18.20
2019-05-30T23:57:45.414Z,18.20
